Great Barford, United Kingdom
Current Conditions -  °F | °C
As of 12:20 PM on Friday 28 Nov 2014 (Local Time) from EGTC Reporting Station
Haze Haze  
Wind Chill: 11°   Ceiling: 800
Heat Index: 11°   Visibility: 2.5mi
Dew Point: 10°   Wind: 13mph
Humidity: 94%   Direction: 90°E
Pressure: 29.62"   Gusts: NA
Location:  52.16°N, 0.35°W
Report Text: EGTC 281220Z 09011KT 4000 BR BKN008 11/10 Q1003
Loading
Personal Weather Stations






























Interactive Weather Map New forecast layout! Learn more

10-Day Weather Forecast

Advertisements
Track Severe Weather on mobile